ISR203 VTBS-VVNB
Flight info
| Callsign | ISR203 |
|---|---|
| Flight time | 1h 21m |
| Altitude | 37000 |
| Route | ALBOS1F ALBOS R474 LAVOS/K0911F370 R474 MC MC3H |
| Aircraft | C700/M-SBDGHM1RWXY/LB2 |
Departure
| Time | 2026-05-09 12:19 |
|---|---|
| Airport | Suvarnabhumi Airport (VTBS) |
Arrival
| Time | 2026-05-09 13:40 |
|---|---|
| Airport | Noi Bai International Airport (VVNB) |
| Time | Latitude | Longitude | Altitude | Speed | Heading |
|---|---|---|---|---|---|
| 2026-05-09 11:33 | 13.69609 | 100.74494 | 7 ft | 0 kts | 284° |
| 2026-05-09 11:53 | 13.69606 | 100.74504 | 7 ft | 1 kts | 284° |
| 2026-05-09 11:53 | 13.69605 | 100.74508 | 7 ft | 1 kts | 284° |
| 2026-05-09 11:53 | 13.69599 | 100.74533 | 7 ft | 5 kts | 284° |
| 2026-05-09 11:54 | 13.69591 | 100.74565 | 7 ft | 5 kts | 262° |
| 2026-05-09 11:54 | 13.69582 | 100.74597 | 7 ft | 5 kts | 295° |
| 2026-05-09 11:54 | 13.69584 | 100.74612 | 7 ft | 0 kts | 190° |
| 2026-05-09 11:55 | 13.69579 | 100.74611 | 7 ft | 3 kts | 195° |
| 2026-05-09 11:56 | 13.69440 | 100.74371 | 7 ft | 14 kts | 214° |
| 2026-05-09 11:56 | 13.69387 | 100.74353 | 7 ft | 2 kts | 195° |
| 2026-05-09 11:56 | 13.69363 | 100.74346 | 7 ft | 5 kts | 194° |
| 2026-05-09 11:57 | 13.69315 | 100.74334 | 7 ft | 9 kts | 194° |
| 2026-05-09 11:57 | 13.69246 | 100.74316 | 7 ft | 12 kts | 194° |
| 2026-05-09 11:57 | 13.69157 | 100.74292 | 8 ft | 15 kts | 194° |
| 2026-05-09 11:57 | 13.69050 | 100.74263 | 8 ft | 17 kts | 195° |
| 2026-05-09 11:58 | 13.68925 | 100.74231 | 8 ft | 20 kts | 194° |
| 2026-05-09 11:58 | 13.68785 | 100.74195 | 8 ft | 22 kts | 194° |
| 2026-05-09 11:58 | 13.68630 | 100.74153 | 8 ft | 24 kts | 194° |
| 2026-05-09 11:58 | 13.68524 | 100.74125 | 8 ft | 0 kts | 194° |
| 2026-05-09 11:59 | 13.68522 | 100.74124 | 8 ft | 3 kts | 200° |
| 2026-05-09 11:59 | 13.68491 | 100.74089 | 8 ft | 8 kts | 253° |
| 2026-05-09 11:59 | 13.68481 | 100.74028 | 8 ft | 10 kts | 236° |
| 2026-05-09 11:59 | 13.68412 | 100.73995 | 8 ft | 13 kts | 193° |
| 2026-05-09 12:00 | 13.68314 | 100.73970 | 8 ft | 16 kts | 194° |
| 2026-05-09 12:00 | 13.68200 | 100.73939 | 8 ft | 18 kts | 194° |
| 2026-05-09 12:00 | 13.68067 | 100.73905 | 8 ft | 21 kts | 194° |
| 2026-05-09 12:00 | 13.67917 | 100.73865 | 7 ft | 23 kts | 194° |
| 2026-05-09 12:01 | 13.67888 | 100.73858 | 7 ft | 0 kts | 195° |
| 2026-05-09 12:01 | 13.67884 | 100.73850 | 7 ft | 1 kts | 257° |
| 2026-05-09 12:01 | 13.67895 | 100.73842 | 7 ft | 4 kts | 4° |
| 2026-05-09 12:01 | 13.67925 | 100.73862 | 7 ft | 7 kts | 26° |
| 2026-05-09 12:02 | 13.67978 | 100.73881 | 8 ft | 10 kts | 14° |
| 2026-05-09 12:02 | 13.68052 | 100.73901 | 8 ft | 11 kts | 14° |
| 2026-05-09 12:02 | 13.68097 | 100.73914 | 8 ft | 4 kts | 19° |
| 2026-05-09 12:02 | 13.68112 | 100.73954 | 8 ft | 8 kts | 115° |
| 2026-05-09 12:03 | 13.68066 | 100.73998 | 8 ft | 9 kts | 143° |
| 2026-05-09 12:03 | 13.68024 | 100.74036 | 8 ft | 8 kts | 127° |
| 2026-05-09 12:03 | 13.68005 | 100.74095 | 8 ft | 10 kts | 95° |
| 2026-05-09 12:03 | 13.68003 | 100.74159 | 8 ft | 8 kts | 95° |
| 2026-05-09 12:04 | 13.67992 | 100.74206 | 8 ft | 7 kts | 107° |
| 2026-05-09 12:04 | 13.67977 | 100.74264 | 8 ft | 11 kts | 103° |
| 2026-05-09 12:04 | 13.67955 | 100.74351 | 8 ft | 14 kts | 105° |
| 2026-05-09 12:04 | 13.67927 | 100.74459 | 8 ft | 17 kts | 105° |
| 2026-05-09 12:05 | 13.67891 | 100.74581 | 8 ft | 19 kts | 103° |
| 2026-05-09 12:05 | 13.67864 | 100.74719 | 8 ft | 20 kts | 104° |
| 2026-05-09 12:05 | 13.67828 | 100.74863 | 8 ft | 22 kts | 103° |
| 2026-05-09 12:05 | 13.67793 | 100.75009 | 7 ft | 21 kts | 105° |
| 2026-05-09 12:06 | 13.67751 | 100.75157 | 7 ft | 23 kts | 103° |
| 2026-05-09 12:06 | 13.67711 | 100.75314 | 7 ft | 20 kts | 105° |
| 2026-05-09 12:06 | 13.67664 | 100.75411 | 7 ft | 14 kts | 166° |
| 2026-05-09 12:06 | 13.67586 | 100.75464 | 7 ft | 15 kts | 125° |
| 2026-05-09 12:07 | 13.67484 | 100.75470 | 7 ft | 17 kts | 194° |
| 2026-05-09 12:07 | 13.67362 | 100.75437 | 7 ft | 20 kts | 194° |
| 2026-05-09 12:07 | 13.67224 | 100.75401 | 7 ft | 22 kts | 195° |
| 2026-05-09 12:07 | 13.67071 | 100.75360 | 7 ft | 24 kts | 193° |
| 2026-05-09 12:08 | 13.66902 | 100.75317 | 7 ft | 26 kts | 194° |
| 2026-05-09 12:08 | 13.66742 | 100.75273 | 7 ft | 17 kts | 194° |
| 2026-05-09 12:08 | 13.66620 | 100.75242 | 7 ft | 19 kts | 194° |
| 2026-05-09 12:08 | 13.66482 | 100.75205 | 7 ft | 21 kts | 194° |
| 2026-05-09 12:09 | 13.66330 | 100.75166 | 8 ft | 23 kts | 194° |
| 2026-05-09 12:09 | 13.66166 | 100.75122 | 8 ft | 25 kts | 194° |
| 2026-05-09 12:09 | 13.66008 | 100.75081 | 8 ft | 16 kts | 194° |
| 2026-05-09 12:10 | 13.65802 | 100.75099 | 8 ft | 0 kts | 106° |
| 2026-05-09 12:13 | 13.65797 | 100.75116 | 8 ft | 5 kts | 105° |
| 2026-05-09 12:13 | 13.65786 | 100.75165 | 8 ft | 9 kts | 96° |
| 2026-05-09 12:14 | 13.65813 | 100.75219 | 9 ft | 5 kts | 24° |
| 2026-05-09 12:14 | 13.65819 | 100.75221 | 9 ft | 0 kts | 18° |
| 2026-05-09 12:18 | 13.66105 | 100.75297 | 9 ft | 95 kts | 14° |
| 2026-05-09 12:18 | 13.67051 | 100.75546 | 96 ft | 176 kts | 14° |
| 2026-05-09 12:19 | 13.68154 | 100.75849 | 1539 ft | 143 kts | 18° |
| 2026-05-09 12:19 | 13.69034 | 100.76463 | 2432 ft | 174 kts | 66° |
| 2026-05-09 12:19 | 13.69483 | 100.77704 | 3381 ft | 199 kts | 60° |
| 2026-05-09 12:19 | 13.70466 | 100.78799 | 4433 ft | 224 kts | 45° |
| 2026-05-09 12:20 | 13.71594 | 100.79955 | 5784 ft | 231 kts | 50° |
| 2026-05-09 12:20 | 13.72625 | 100.81247 | 7205 ft | 237 kts | 53° |
| 2026-05-09 12:20 | 13.73736 | 100.82649 | 7805 ft | 263 kts | 52° |
| 2026-05-09 12:20 | 13.74911 | 100.84068 | 7816 ft | 256 kts | 51° |
| 2026-05-09 12:21 | 13.76058 | 100.85431 | 7816 ft | 248 kts | 52° |
| 2026-05-09 12:21 | 13.77120 | 100.86861 | 7814 ft | 262 kts | 55° |
| 2026-05-09 12:21 | 13.78249 | 100.88442 | 7815 ft | 281 kts | 55° |
| 2026-05-09 12:21 | 13.79429 | 100.90062 | 7816 ft | 284 kts | 54° |
| 2026-05-09 12:22 | 13.80636 | 100.91677 | 7815 ft | 285 kts | 54° |
| 2026-05-09 12:22 | 13.81847 | 100.93298 | 7811 ft | 285 kts | 54° |
| 2026-05-09 12:22 | 13.83048 | 100.94915 | 7807 ft | 284 kts | 52° |
| 2026-05-09 12:22 | 13.84523 | 100.96262 | 7813 ft | 286 kts | 36° |
| 2026-05-09 12:23 | 13.86284 | 100.97216 | 7813 ft | 287 kts | 23° |
| 2026-05-09 12:23 | 13.88236 | 100.97669 | 7810 ft | 289 kts | 8° |
| 2026-05-09 12:23 | 13.89569 | 100.97759 | 7806 ft | 290 kts | 4° |
| 2026-05-09 12:23 | 13.91594 | 100.97842 | 7812 ft | 291 kts | 4° |
| 2026-05-09 12:24 | 13.93618 | 100.97962 | 7814 ft | 292 kts | 6° |
| 2026-05-09 12:24 | 13.95648 | 100.98118 | 7812 ft | 293 kts | 6° |
| 2026-05-09 12:24 | 13.98343 | 100.98296 | 7813 ft | 293 kts | 5° |
| 2026-05-09 12:24 | 13.99718 | 100.98366 | 7809 ft | 292 kts | 4° |
| 2026-05-09 12:25 | 14.01747 | 100.98468 | 7805 ft | 291 kts | 5° |
| 2026-05-09 12:25 | 14.03771 | 100.98590 | 7814 ft | 291 kts | 5° |
| 2026-05-09 12:25 | 14.05790 | 100.98724 | 7813 ft | 291 kts | 5° |
| 2026-05-09 12:25 | 14.07782 | 100.98849 | 7814 ft | 290 kts | 5° |
| 2026-05-09 12:26 | 14.09799 | 100.98962 | 7816 ft | 290 kts | 5° |
| 2026-05-09 12:26 | 14.11814 | 100.99075 | 7808 ft | 290 kts | 5° |
| 2026-05-09 12:26 | 14.13833 | 100.99198 | 7811 ft | 291 kts | 5° |
| 2026-05-09 12:26 | 14.15862 | 100.99326 | 7807 ft | 292 kts | 5° |
| 2026-05-09 12:27 | 14.17898 | 100.99449 | 7819 ft | 293 kts | 5° |
| 2026-05-09 12:27 | 14.19938 | 100.99565 | 7818 ft | 293 kts | 5° |
| 2026-05-09 12:27 | 14.21974 | 100.99684 | 7816 ft | 293 kts | 5° |
| 2026-05-09 12:27 | 14.24009 | 100.99808 | 7818 ft | 293 kts | 5° |
| 2026-05-09 12:28 | 14.26041 | 100.99935 | 7820 ft | 292 kts | 5° |
| 2026-05-09 12:28 | 14.28073 | 101.00057 | 7819 ft | 292 kts | 5° |
| 2026-05-09 12:28 | 14.30101 | 101.00171 | 7819 ft | 292 kts | 5° |
| 2026-05-09 12:28 | 14.32123 | 101.00291 | 7809 ft | 291 kts | 5° |
| 2026-05-09 12:29 | 14.34155 | 101.00417 | 7878 ft | 298 kts | 5° |
| 2026-05-09 12:29 | 14.36185 | 101.00549 | 9458 ft | 289 kts | 6° |
| 2026-05-09 12:29 | 14.38227 | 101.00694 | 10571 ft | 310 kts | 5° |
| 2026-05-09 12:29 | 14.40470 | 101.00820 | 11463 ft | 334 kts | 4° |
| 2026-05-09 12:30 | 14.42931 | 101.00936 | 11819 ft | 374 kts | 4° |
| 2026-05-09 12:30 | 14.45609 | 101.01083 | 11831 ft | 393 kts | 4° |
| 2026-05-09 12:30 | 14.51104 | 101.01448 | 11832 ft | 398 kts | 5° |
| 2026-05-09 12:31 | 14.53873 | 101.01613 | 11825 ft | 399 kts | 4° |
| 2026-05-09 12:31 | 14.59422 | 101.01908 | 11833 ft | 399 kts | 4° |
| 2026-05-09 12:31 | 14.62175 | 101.02081 | 12397 ft | 388 kts | 5° |
| 2026-05-09 12:32 | 14.64849 | 101.02262 | 13884 ft | 392 kts | 5° |
| 2026-05-09 12:32 | 14.67673 | 101.02443 | 14121 ft | 416 kts | 4° |
| 2026-05-09 12:32 | 14.70545 | 101.02606 | 14127 ft | 411 kts | 4° |
| 2026-05-09 12:32 | 14.73401 | 101.02854 | 14121 ft | 414 kts | 11° |
| 2026-05-09 12:33 | 14.76092 | 101.03734 | 15105 ft | 394 kts | 22° |
| 2026-05-09 12:33 | 14.78495 | 101.04856 | 17271 ft | 365 kts | 26° |
| 2026-05-09 12:33 | 14.80779 | 101.05997 | 18695 ft | 368 kts | 26° |
| 2026-05-09 12:33 | 14.83082 | 101.07156 | 19580 ft | 376 kts | 26° |
| 2026-05-09 12:34 | 14.85444 | 101.08345 | 20582 ft | 380 kts | 26° |
| 2026-05-09 12:34 | 14.87839 | 101.09549 | 21546 ft | 386 kts | 26° |
| 2026-05-09 12:34 | 14.90331 | 101.10803 | 21819 ft | 412 kts | 26° |
| 2026-05-09 12:34 | 14.93002 | 101.12153 | 21832 ft | 442 kts | 26° |
| 2026-05-09 12:35 | 14.95826 | 101.13584 | 21838 ft | 458 kts | 26° |
| 2026-05-09 12:35 | 14.98700 | 101.15035 | 21837 ft | 460 kts | 26° |
| 2026-05-09 12:35 | 15.01579 | 101.16474 | 21839 ft | 460 kts | 26° |
| 2026-05-09 12:35 | 15.04383 | 101.17875 | 23215 ft | 434 kts | 25° |
| 2026-05-09 12:36 | 15.07009 | 101.19197 | 25021 ft | 407 kts | 26° |
| 2026-05-09 12:36 | 15.09555 | 101.20491 | 25952 ft | 412 kts | 26° |
| 2026-05-09 12:36 | 15.12149 | 101.21816 | 26601 ft | 418 kts | 26° |
| 2026-05-09 12:36 | 15.14773 | 101.23144 | 27346 ft | 422 kts | 26° |
| 2026-05-09 12:37 | 15.17430 | 101.24473 | 28046 ft | 427 kts | 26° |
| 2026-05-09 12:37 | 15.20116 | 101.25820 | 28737 ft | 431 kts | 26° |
| 2026-05-09 12:37 | 15.22825 | 101.27196 | 29416 ft | 435 kts | 26° |
| 2026-05-09 12:37 | 15.25555 | 101.28586 | 29884 ft | 440 kts | 26° |
| 2026-05-09 12:38 | 15.28315 | 101.29979 | 30289 ft | 443 kts | 26° |
| 2026-05-09 12:38 | 15.31096 | 101.31376 | 30700 ft | 446 kts | 26° |
| 2026-05-09 12:38 | 15.33891 | 101.32789 | 31101 ft | 448 kts | 26° |
| 2026-05-09 12:38 | 15.36698 | 101.34225 | 31570 ft | 451 kts | 27° |
| 2026-05-09 12:39 | 15.39484 | 101.35651 | 32139 ft | 454 kts | 26° |
| 2026-05-09 12:39 | 15.42338 | 101.37090 | 32661 ft | 458 kts | 26° |
| 2026-05-09 12:39 | 15.45221 | 101.38530 | 33234 ft | 460 kts | 26° |
| 2026-05-09 12:39 | 15.48091 | 101.39979 | 33958 ft | 457 kts | 26° |
| 2026-05-09 12:40 | 15.50935 | 101.41438 | 34565 ft | 455 kts | 26° |
| 2026-05-09 12:40 | 15.53765 | 101.42890 | 35183 ft | 453 kts | 26° |
| 2026-05-09 12:40 | 15.56589 | 101.44315 | 35829 ft | 450 kts | 25° |
| 2026-05-09 12:40 | 15.59409 | 101.45724 | 36473 ft | 448 kts | 25° |
| 2026-05-09 12:41 | 15.62217 | 101.47143 | 36843 ft | 454 kts | 25° |
| 2026-05-09 12:41 | 15.65089 | 101.48618 | 36844 ft | 467 kts | 26° |
| 2026-05-09 12:41 | 15.68042 | 101.50135 | 36846 ft | 480 kts | 25° |
| 2026-05-09 12:41 | 15.71054 | 101.51658 | 36858 ft | 491 kts | 25° |
| 2026-05-09 12:42 | 15.74153 | 101.53211 | 36867 ft | 496 kts | 25° |
| 2026-05-09 12:42 | 15.80367 | 101.56387 | 36867 ft | 492 kts | 25° |
| 2026-05-09 12:43 | 15.86459 | 101.59493 | 36878 ft | 491 kts | 25° |
| 2026-05-09 12:43 | 15.92640 | 101.62613 | 36880 ft | 495 kts | 25° |
| 2026-05-09 12:44 | 15.98814 | 101.65799 | 36885 ft | 494 kts | 25° |
| 2026-05-09 12:44 | 16.04994 | 101.68911 | 36889 ft | 492 kts | 25° |
| 2026-05-09 12:45 | 16.11090 | 101.72047 | 36895 ft | 492 kts | 26° |
| 2026-05-09 12:45 | 16.17247 | 101.75190 | 36897 ft | 492 kts | 25° |
| 2026-05-09 12:46 | 16.23428 | 101.78324 | 36902 ft | 497 kts | 25° |
| 2026-05-09 12:46 | 16.29609 | 101.81527 | 36905 ft | 494 kts | 25° |
| 2026-05-09 12:47 | 16.35740 | 101.84620 | 36900 ft | 492 kts | 25° |
| 2026-05-09 12:47 | 16.41907 | 101.87808 | 36903 ft | 495 kts | 25° |
| 2026-05-09 12:48 | 16.48113 | 101.90983 | 36903 ft | 497 kts | 25° |
| 2026-05-09 12:48 | 16.54337 | 101.94154 | 36905 ft | 497 kts | 25° |
| 2026-05-09 12:49 | 16.60516 | 101.97366 | 36903 ft | 494 kts | 25° |
| 2026-05-09 12:49 | 16.66782 | 102.00157 | 36892 ft | 493 kts | 18° |
| 2026-05-09 12:50 | 16.73219 | 102.02709 | 36892 ft | 497 kts | 22° |
| 2026-05-09 12:50 | 16.79658 | 102.05398 | 36894 ft | 497 kts | 18° |
| 2026-05-09 12:51 | 16.86164 | 102.07797 | 36893 ft | 494 kts | 19° |
| 2026-05-09 12:51 | 16.92521 | 102.10510 | 36891 ft | 494 kts | 20° |
| 2026-05-09 12:52 | 16.98940 | 102.12970 | 36891 ft | 496 kts | 18° |
| 2026-05-09 12:52 | 17.05408 | 102.15552 | 36893 ft | 499 kts | 21° |
| 2026-05-09 12:53 | 17.11852 | 102.18214 | 36893 ft | 497 kts | 18° |
| 2026-05-09 12:53 | 17.18343 | 102.20682 | 36891 ft | 495 kts | 19° |
| 2026-05-09 12:54 | 17.24733 | 102.23356 | 36886 ft | 495 kts | 20° |
| 2026-05-09 12:54 | 17.31216 | 102.25887 | 36884 ft | 499 kts | 18° |
| 2026-05-09 12:55 | 17.37712 | 102.28487 | 36882 ft | 500 kts | 20° |
| 2026-05-09 12:55 | 17.44171 | 102.31143 | 36881 ft | 497 kts | 19° |
| 2026-05-09 12:56 | 17.50652 | 102.33649 | 36879 ft | 498 kts | 19° |
| 2026-05-09 12:56 | 17.57125 | 102.36338 | 36880 ft | 502 kts | 20° |
| 2026-05-09 12:57 | 17.63636 | 102.38907 | 36880 ft | 503 kts | 18° |
| 2026-05-09 12:57 | 17.70173 | 102.41532 | 36886 ft | 501 kts | 20° |
| 2026-05-09 12:58 | 17.76657 | 102.44196 | 36889 ft | 498 kts | 19° |
| 2026-05-09 12:58 | 17.83114 | 102.46719 | 36890 ft | 499 kts | 19° |
| 2026-05-09 12:59 | 17.89611 | 102.49422 | 36893 ft | 503 kts | 20° |
| 2026-05-09 12:59 | 17.96145 | 102.52055 | 36891 ft | 501 kts | 18° |
| 2026-05-09 13:00 | 18.02459 | 102.55118 | 36880 ft | 502 kts | 31° |
| 2026-05-09 13:00 | 18.08126 | 102.59444 | 36879 ft | 505 kts | 34° |
| 2026-05-09 13:01 | 18.13936 | 102.63643 | 36881 ft | 508 kts | 32° |
| 2026-05-09 13:01 | 18.19604 | 102.67975 | 36891 ft | 505 kts | 35° |
| 2026-05-09 13:02 | 18.25301 | 102.72267 | 36895 ft | 503 kts | 32° |
| 2026-05-09 13:02 | 18.31053 | 102.76494 | 36897 ft | 506 kts | 34° |
| 2026-05-09 13:03 | 18.36753 | 102.80910 | 36905 ft | 509 kts | 33° |
| 2026-05-09 13:03 | 18.42554 | 102.85157 | 36910 ft | 506 kts | 33° |
| 2026-05-09 13:04 | 18.48245 | 102.89511 | 36917 ft | 503 kts | 34° |
| 2026-05-09 13:04 | 18.53908 | 102.93778 | 36927 ft | 505 kts | 32° |
| 2026-05-09 13:05 | 18.59665 | 102.98060 | 36938 ft | 507 kts | 34° |
| 2026-05-09 13:05 | 18.65341 | 103.02443 | 36944 ft | 503 kts | 33° |
| 2026-05-09 13:06 | 18.71070 | 103.06675 | 36952 ft | 503 kts | 33° |
| 2026-05-09 13:06 | 18.76769 | 103.11049 | 36962 ft | 507 kts | 34° |
| 2026-05-09 13:07 | 18.82490 | 103.15368 | 36968 ft | 504 kts | 33° |
| 2026-05-09 13:07 | 18.88150 | 103.19615 | 36966 ft | 503 kts | 34° |
| 2026-05-09 13:08 | 18.93821 | 103.23989 | 36977 ft | 506 kts | 33° |
| 2026-05-09 13:08 | 18.99584 | 103.28282 | 36977 ft | 507 kts | 33° |
| 2026-05-09 13:09 | 19.05271 | 103.32661 | 36975 ft | 504 kts | 34° |
| 2026-05-09 13:09 | 19.10961 | 103.36968 | 36977 ft | 504 kts | 33° |
| 2026-05-09 13:10 | 19.16692 | 103.41301 | 36983 ft | 508 kts | 34° |
| 2026-05-09 13:10 | 19.21422 | 103.44968 | 36987 ft | 506 kts | 34° |
| 2026-05-09 13:11 | 19.27171 | 103.49279 | 36991 ft | 505 kts | 33° |
| 2026-05-09 13:11 | 19.32846 | 103.53648 | 36993 ft | 504 kts | 34° |
| 2026-05-09 13:12 | 19.38539 | 103.57996 | 36991 ft | 505 kts | 33° |
| 2026-05-09 13:12 | 19.44269 | 103.62333 | 36998 ft | 508 kts | 34° |
| 2026-05-09 13:13 | 19.49947 | 103.66810 | 37000 ft | 509 kts | 34° |
| 2026-05-09 13:13 | 19.55686 | 103.71194 | 37003 ft | 506 kts | 33° |
| 2026-05-09 13:14 | 19.61353 | 103.75605 | 36998 ft | 505 kts | 35° |
| 2026-05-09 13:16 | 19.84111 | 103.93268 | 37006 ft | 509 kts | 34° |
| 2026-05-09 13:16 | 19.89807 | 103.97729 | 37008 ft | 509 kts | 35° |
| 2026-05-09 13:17 | 19.95497 | 104.02183 | 37015 ft | 508 kts | 33° |
| 2026-05-09 13:17 | 20.01214 | 104.06589 | 37020 ft | 507 kts | 34° |
| 2026-05-09 13:18 | 20.06866 | 104.11073 | 37023 ft | 506 kts | 34° |
| 2026-05-09 13:18 | 20.09712 | 104.13279 | 36811 ft | 506 kts | 33° |
| 2026-05-09 13:18 | 20.12552 | 104.15458 | 36202 ft | 499 kts | 33° |
| 2026-05-09 13:18 | 20.15323 | 104.17619 | 35590 ft | 489 kts | 34° |
| 2026-05-09 13:19 | 20.18033 | 104.19774 | 34991 ft | 481 kts | 35° |
| 2026-05-09 13:19 | 20.20705 | 104.21892 | 34396 ft | 477 kts | 34° |
| 2026-05-09 13:19 | 20.23393 | 104.23979 | 33778 ft | 482 kts | 34° |
| 2026-05-09 13:19 | 20.26136 | 104.26088 | 33165 ft | 490 kts | 34° |
| 2026-05-09 13:20 | 20.28865 | 104.28223 | 32558 ft | 496 kts | 35° |
| 2026-05-09 13:20 | 20.31633 | 104.30430 | 31939 ft | 497 kts | 35° |
| 2026-05-09 13:20 | 20.34406 | 104.32635 | 31323 ft | 497 kts | 35° |
| 2026-05-09 13:20 | 20.37202 | 104.34813 | 30702 ft | 497 kts | 34° |
| 2026-05-09 13:21 | 20.40005 | 104.36974 | 30078 ft | 497 kts | 34° |
| 2026-05-09 13:21 | 20.42791 | 104.39154 | 29416 ft | 496 kts | 35° |
| 2026-05-09 13:21 | 20.45544 | 104.41346 | 28799 ft | 491 kts | 35° |
| 2026-05-09 13:21 | 20.48284 | 104.43480 | 28193 ft | 485 kts | 34° |
| 2026-05-09 13:22 | 20.51030 | 104.45537 | 27593 ft | 480 kts | 33° |
| 2026-05-09 13:22 | 20.53752 | 104.47570 | 27001 ft | 475 kts | 34° |
| 2026-05-09 13:22 | 20.56423 | 104.49635 | 26419 ft | 472 kts | 35° |
| 2026-05-09 13:23 | 20.66921 | 104.57725 | 24110 ft | 458 kts | 34° |
| 2026-05-09 13:23 | 20.69498 | 104.59711 | 23527 ft | 455 kts | 36° |
| 2026-05-09 13:24 | 20.72029 | 104.61712 | 22926 ft | 449 kts | 36° |
| 2026-05-09 13:24 | 20.74532 | 104.63679 | 22363 ft | 444 kts | 35° |
| 2026-05-09 13:24 | 20.77030 | 104.65585 | 21824 ft | 440 kts | 34° |
| 2026-05-09 13:24 | 20.79517 | 104.67467 | 21281 ft | 437 kts | 35° |
| 2026-05-09 13:25 | 20.81959 | 104.69377 | 20739 ft | 434 kts | 39° |
| 2026-05-09 13:25 | 20.83988 | 104.71754 | 20210 ft | 432 kts | 53° |
| 2026-05-09 13:25 | 20.87137 | 104.77175 | 19158 ft | 427 kts | 61° |
| 2026-05-09 13:26 | 20.88580 | 104.79926 | 18630 ft | 422 kts | 61° |
| 2026-05-09 13:26 | 20.89999 | 104.82659 | 18069 ft | 419 kts | 61° |
| 2026-05-09 13:26 | 20.91385 | 104.85333 | 17540 ft | 414 kts | 61° |
| 2026-05-09 13:26 | 20.92773 | 104.88011 | 17024 ft | 409 kts | 61° |
| 2026-05-09 13:27 | 20.94145 | 104.90656 | 16517 ft | 405 kts | 61° |
| 2026-05-09 13:27 | 20.95507 | 104.93285 | 16008 ft | 402 kts | 61° |
| 2026-05-09 13:27 | 20.96858 | 104.95898 | 15508 ft | 399 kts | 61° |
| 2026-05-09 13:27 | 20.98194 | 104.98487 | 15010 ft | 395 kts | 61° |
| 2026-05-09 13:28 | 20.99518 | 105.01050 | 14518 ft | 392 kts | 61° |
| 2026-05-09 13:28 | 21.00829 | 105.03590 | 14023 ft | 388 kts | 61° |
| 2026-05-09 13:28 | 21.02121 | 105.06091 | 13519 ft | 378 kts | 61° |
| 2026-05-09 13:28 | 21.03368 | 105.08496 | 13032 ft | 361 kts | 61° |
| 2026-05-09 13:29 | 21.04565 | 105.10793 | 12587 ft | 346 kts | 61° |
| 2026-05-09 13:29 | 21.05719 | 105.13008 | 12159 ft | 334 kts | 61° |
| 2026-05-09 13:29 | 21.06819 | 105.15121 | 11764 ft | 324 kts | 61° |
| 2026-05-09 13:29 | 21.07897 | 105.17196 | 11356 ft | 314 kts | 61° |
| 2026-05-09 13:30 | 21.08948 | 105.19217 | 10969 ft | 307 kts | 61° |
| 2026-05-09 13:30 | 21.09978 | 105.21197 | 10583 ft | 303 kts | 61° |
| 2026-05-09 13:30 | 21.11006 | 105.23170 | 10187 ft | 303 kts | 61° |
| 2026-05-09 13:30 | 21.12033 | 105.25139 | 9865 ft | 303 kts | 61° |
| 2026-05-09 13:31 | 21.13062 | 105.27105 | 9540 ft | 302 kts | 61° |
| 2026-05-09 13:31 | 21.14090 | 105.29061 | 9181 ft | 300 kts | 61° |
| 2026-05-09 13:31 | 21.14978 | 105.31069 | 8814 ft | 297 kts | 71° |
| 2026-05-09 13:31 | 21.15586 | 105.33165 | 8486 ft | 293 kts | 75° |
| 2026-05-09 13:32 | 21.16203 | 105.35227 | 8142 ft | 290 kts | 70° |
| 2026-05-09 13:32 | 21.18014 | 105.39054 | 7453 ft | 284 kts | 60° |
| 2026-05-09 13:32 | 21.18974 | 105.40881 | 7257 ft | 280 kts | 63° |
| 2026-05-09 13:33 | 21.19786 | 105.42643 | 6932 ft | 245 kts | 66° |
| 2026-05-09 13:33 | 21.20443 | 105.44198 | 6631 ft | 224 kts | 67° |
| 2026-05-09 13:33 | 21.21103 | 105.45701 | 6340 ft | 223 kts | 65° |
| 2026-05-09 13:33 | 21.21732 | 105.47215 | 6038 ft | 222 kts | 69° |
| 2026-05-09 13:34 | 21.22304 | 105.48729 | 5995 ft | 220 kts | 70° |
| 2026-05-09 13:34 | 21.22866 | 105.50269 | 5979 ft | 217 kts | 70° |
| 2026-05-09 13:34 | 21.23443 | 105.51740 | 5103 ft | 217 kts | 68° |
| 2026-05-09 13:34 | 21.24049 | 105.53218 | 4299 ft | 213 kts | 67° |
| 2026-05-09 13:35 | 21.24625 | 105.54618 | 4008 ft | 194 kts | 67° |
| 2026-05-09 13:35 | 21.25136 | 105.55960 | 3221 ft | 200 kts | 71° |
| 2026-05-09 13:35 | 21.25551 | 105.57283 | 3015 ft | 170 kts | 71° |
| 2026-05-09 13:35 | 21.25942 | 105.58414 | 2999 ft | 159 kts | 68° |
| 2026-05-09 13:36 | 21.26367 | 105.59512 | 2996 ft | 163 kts | 67° |
| 2026-05-09 13:36 | 21.26809 | 105.60627 | 2994 ft | 163 kts | 67° |
| 2026-05-09 13:36 | 21.27156 | 105.61777 | 2997 ft | 163 kts | 84° |
| 2026-05-09 13:36 | 21.26954 | 105.62975 | 2939 ft | 169 kts | 108° |
| 2026-05-09 13:37 | 21.26597 | 105.64177 | 2734 ft | 167 kts | 104° |
| 2026-05-09 13:37 | 21.26286 | 105.65363 | 2519 ft | 164 kts | 103° |
| 2026-05-09 13:37 | 21.25961 | 105.66525 | 2307 ft | 161 kts | 105° |
| 2026-05-09 13:37 | 21.25638 | 105.67597 | 2112 ft | 147 kts | 104° |
| 2026-05-09 13:38 | 21.25343 | 105.68640 | 1922 ft | 145 kts | 103° |
| 2026-05-09 13:38 | 21.25050 | 105.69680 | 1733 ft | 146 kts | 103° |
| 2026-05-09 13:38 | 21.24748 | 105.70713 | 1541 ft | 145 kts | 104° |
| 2026-05-09 13:38 | 21.24453 | 105.71733 | 1349 ft | 145 kts | 104° |
| 2026-05-09 13:39 | 21.24157 | 105.72768 | 1167 ft | 145 kts | 104° |
| 2026-05-09 13:39 | 21.23857 | 105.73820 | 982 ft | 149 kts | 105° |
| 2026-05-09 13:39 | 21.23553 | 105.74887 | 792 ft | 150 kts | 105° |
| 2026-05-09 13:39 | 21.23244 | 105.75944 | 599 ft | 147 kts | 106° |
| 2026-05-09 13:40 | 21.22945 | 105.76991 | 389 ft | 146 kts | 105° |
| 2026-05-09 13:40 | 21.22662 | 105.78029 | 201 ft | 142 kts | 107° |
| 2026-05-09 13:40 | 21.22397 | 105.78932 | 44 ft | 105 kts | 108° |
| 2026-05-09 13:40 | 21.22261 | 105.79389 | 42 ft | 44 kts | 108° |
| 2026-05-09 13:41 | 21.22182 | 105.79654 | 40 ft | 29 kts | 107° |
| 2026-05-09 13:41 | 21.22122 | 105.79861 | 41 ft | 27 kts | 107° |
| 2026-05-09 13:41 | 21.22034 | 105.80011 | 42 ft | 17 kts | 170° |
| 2026-05-09 13:41 | 21.21927 | 105.79967 | 43 ft | 14 kts | 238° |
| 2026-05-09 13:42 | 21.21952 | 105.79859 | 42 ft | 17 kts | 290° |
| 2026-05-09 13:42 | 21.21989 | 105.79729 | 42 ft | 19 kts | 286° |
| 2026-05-09 13:42 | 21.22008 | 105.79581 | 43 ft | 21 kts | 253° |
| 2026-05-09 13:42 | 21.21978 | 105.79445 | 43 ft | 19 kts | 283° |
| 2026-05-09 13:43 | 21.22016 | 105.79299 | 43 ft | 21 kts | 287° |
| 2026-05-09 13:43 | 21.22062 | 105.79149 | 43 ft | 21 kts | 290° |
| 2026-05-09 13:43 | 21.22077 | 105.79046 | 43 ft | 8 kts | 210° |
| 2026-05-09 13:43 | 21.22015 | 105.79020 | 43 ft | 11 kts | 200° |
| 2026-05-09 13:44 | 21.21976 | 105.79005 | 43 ft | 0 kts | 199° |